Time;durP1;ratioP1;P1;durP2;ratioP2;P2;SDS_P1;SDS_P2;PMS_P1;PMS_P2;Temp;Humidity;BMP_temperature;BMP_pressure;BME280_temperature;BME280_humidity;BME280_pressure;Samples;Min_cycle;Max_cycle;Signal;HPM_P1;HPM_P2
2024/04/04 00:01:01;;;;;;;;;;;10.80;99.90;;;10.32;100.00;97499.88;5012904;28;1629;-70
2024/04/04 00:03:28;;;;;;;;;;;10.80;99.90;;;10.31;100.00;97503.38;5031023;28;1450;-70
2024/04/04 00:05:54;;;;;;;;;;;10.80;99.90;;;10.17;100.00;97502.19;5031334;28;1781;-70
2024/04/04 00:08:20;;;;;;;;;;;10.80;99.90;;;10.23;100.00;97507.09;5028857;28;1816;-70
2024/04/04 00:10:48;;;;;;;;;;;10.70;99.90;;;10.31;100.00;97500.78;5033944;28;1914;-70
2024/04/04 00:13:14;;;;;;;;;;;10.70;99.90;;;10.23;100.00;97488.13;5014216;28;3528;-70
2024/04/04 00:15:40;;;;;;;;;;;10.80;99.90;;;10.24;100.00;97489.78;5036367;28;1466;-70
2024/04/04 00:18:07;;;;;;;;;;;10.80;99.90;;;10.22;100.00;97494.22;5015697;28;1625;-70
2024/04/04 00:20:39;;;;;;;;;;;10.80;99.90;;;10.23;100.00;97490.72;5030695;28;1602;-70
2024/04/04 00:23:05;;;;;;;;;;;10.70;99.90;;;10.25;100.00;97479.34;5023552;28;1611;-70
2024/04/04 00:25:32;;;;;;;;;;;10.80;99.90;;;10.26;100.00;97483.66;5012243;28;1954;-70
2024/04/04 00:27:58;;;;;;;;;;;10.80;99.90;;;10.25;100.00;97487.13;5028805;28;1682;-70
2024/04/04 00:30:24;;;;;;;;;;;10.80;99.90;;;10.26;100.00;97481.06;5010497;28;1918;-70
2024/04/04 00:32:53;;;;;;;;;;;10.80;99.90;;;10.26;100.00;97482.78;5012613;28;1688;-70
2024/04/04 00:35:19;;;;;;;;;;;10.90;99.90;;;10.21;100.00;97476.97;5013159;28;1708;-70
2024/04/04 00:37:47;;;;;;;;;;;10.80;99.90;;;10.33;100.00;97481.66;5031325;28;1890;-70
2024/04/04 00:40:14;;;;;;;;;;;10.80;99.90;;;10.31;100.00;97486.06;5029286;28;1980;-70
2024/04/04 00:42:40;;;;;;;;;;;10.80;99.90;;;10.26;100.00;97475.88;5030537;28;1702;-70
2024/04/04 00:45:06;;;;;;;;;;;10.80;99.90;;;10.32;100.00;97472.19;5011571;28;1802;-70
2024/04/04 00:47:32;;;;;;;;;;;10.80;99.90;;;10.25;100.00;97465.53;5032891;28;1623;-70
2024/04/04 00:49:58;;;;;;;;;;;10.80;99.90;;;10.22;100.00;97460.50;5008201;28;1777;-70
2024/04/04 00:52:24;;;;;;;;;;;10.80;99.90;;;10.22;100.00;97463.09;5012494;28;1977;-70
2024/04/04 00:54:51;;;;;;;;;;;10.80;99.90;;;10.22;100.00;97461.34;5034397;28;3145;-70
2024/04/04 00:57:17;;;;;;;;;;;10.80;99.90;;;10.22;100.00;97457.91;5012742;28;1634;-70
2024/04/04 00:59:42;;;;;;;;;;;10.80;99.90;;;10.20;100.00;97454.53;5046009;28;1871;-70
2024/04/04 01:02:08;;;;;;;;;;;10.80;99.90;;;10.22;100.00;97455.31;5029311;28;1515;-70
2024/04/04 01:04:34;;;;;;;;;;;10.70;99.90;;;10.19;100.00;97445.88;5030661;28;1567;-70
2024/04/04 01:07:00;;;;;;;;;;;10.80;99.90;;;10.22;100.00;97442.34;5030917;28;1422;-70
2024/04/04 01:09:26;;;;;;;;;;;10.80;99.90;;;10.32;100.00;97448.84;5011688;28;2335;-70
2024/04/04 01:11:51;;;;;;;;;;;10.80;99.90;;;10.23;100.00;97438.81;5029955;28;1902;-69
2024/04/04 01:14:17;;;;;;;;;;;10.80;99.90;;;10.21;100.00;97438.88;5029009;28;1645;-70
2024/04/04 01:16:43;;;;;;;;;;;10.80;99.90;;;10.30;100.00;97455.84;5011574;28;1730;-70
2024/04/04 01:19:09;;;;;;;;;;;10.80;99.90;;;10.33;100.00;97454.84;5043722;28;1547;-70
2024/04/04 01:21:35;;;;;;;;;;;10.90;99.90;;;10.32;100.00;97450.59;5013201;28;2144;-70
2024/04/04 01:24:01;;;;;;;;;;;10.90;99.90;;;10.37;100.00;97427.88;5029221;28;2501;-70
2024/04/04 01:26:27;;;;;;;;;;;10.80;99.90;;;10.24;100.00;97430.13;5031327;28;2493;-70
2024/04/04 01:28:53;;;;;;;;;;;10.80;99.90;;;10.25;100.00;97437.84;5031134;28;1552;-70
2024/04/04 01:31:19;;;;;;;;;;;10.90;99.90;;;10.17;100.00;97434.75;5028169;28;2007;-70
2024/04/04 01:33:45;;;;;;;;;;;10.80;99.90;;;10.15;100.00;97446.09;5028996;28;1615;-70
2024/04/04 01:36:11;;;;;;;;;;;10.80;99.90;;;10.16;100.00;97433.06;5027822;28;3096;-70
2024/04/04 01:38:36;;;;;;;;;;;10.80;99.90;;;10.16;100.00;97437.41;5028019;28;2374;-70
2024/04/04 01:41:03;;;;;;;;;;;10.70;99.90;;;10.12;100.00;97446.22;5030505;28;1563;-70
2024/04/04 01:43:29;;;;;;;;;;;10.70;99.90;;;10.11;100.00;97435.03;4995336;28;1868;-70
2024/04/04 01:45:55;;;;;;;;;;;10.70;99.90;;;10.10;100.00;97432.47;5014729;28;1827;-70
2024/04/04 01:48:21;;;;;;;;;;;10.70;99.90;;;10.11;100.00;97426.41;5029000;28;1411;-70
2024/04/04 01:50:47;;;;;;;;;;;10.70;99.90;;;10.13;100.00;97429.78;5028242;28;1906;-70
2024/04/04 01:53:13;;;;;;;;;;;10.70;99.90;;;10.18;100.00;97433.00;5012838;28;1616;-70
2024/04/04 01:55:44;;;;;;;;;;;10.70;99.90;;;10.25;100.00;97429.22;5032169;28;2303;-70
2024/04/04 01:58:10;;;;;;;;;;;10.70;99.90;;;10.22;100.00;97426.78;5022663;28;1762;-70
2024/04/04 02:00:36;;;;;;;;;;;10.80;99.90;;;10.30;100.00;97431.66;5028256;28;2506;-70
2024/04/04 02:03:02;;;;;;;;;;;10.80;99.90;;;10.39;100.00;97429.50;5026820;28;1786;-70
2024/04/04 02:05:28;;;;;;;;;;;10.80;99.90;;;10.38;100.00;97427.81;5013370;28;1590;-70
2024/04/04 02:07:54;;;;;;;;;;;10.90;99.90;;;10.36;100.00;97410.63;5028746;28;1598;-70
2024/04/04 02:10:20;;;;;;;;;;;10.90;99.90;;;10.39;100.00;97424.31;5010880;28;2028;-70
2024/04/04 02:12:47;;;;;;;;;;;10.90;99.90;;;10.44;100.00;97416.31;5028510;28;1510;-70
2024/04/04 02:15:14;;;;;;;;;;;11.00;99.90;;;10.54;100.00;97416.75;5012861;28;3255;-70
2024/04/04 02:17:40;;;;;;;;;;;10.90;99.90;;;10.49;100.00;97414.38;5012876;28;1953;-70
2024/04/04 02:20:09;;;;;;;;;;;11.00;99.90;;;10.53;100.00;97418.50;5026320;28;1668;-70
2024/04/04 02:22:37;;;;;;;;;;;11.00;99.90;;;10.42;100.00;97407.75;5026786;28;1417;-70
2024/04/04 02:25:05;;;;;;;;;;;11.00;99.90;;;10.47;100.00;97411.00;5037635;28;1792;-70
2024/04/04 02:27:33;;;;;;;;;;;11.00;99.90;;;10.53;100.00;97426.28;5026220;28;2092;-70
2024/04/04 02:30:00;;;;;;;;;;;11.00;99.90;;;10.54;100.00;97415.00;5029672;28;1460;-70
2024/04/04 02:32:27;;;;;;;;;;;11.10;99.90;;;10.64;100.00;97410.22;5010943;28;1977;-70
2024/04/04 02:34:54;;;;;;;;;;;11.10;99.90;;;10.63;100.00;97406.81;5026904;28;1438;-70
2024/04/04 02:37:20;;;;;;;;;;;11.10;99.90;;;10.66;100.00;97396.25;5027820;28;1383;-70
2024/04/04 02:39:46;;;;;;;;;;;11.10;99.90;;;10.75;100.00;97405.41;5026594;28;1648;-70
2024/04/04 02:42:12;;;;;;;;;;;11.10;99.90;;;10.66;100.00;97390.25;5027658;28;1936;-71
2024/04/04 02:44:38;;;;;;;;;;;11.10;99.90;;;10.79;100.00;97393.13;5026376;28;1487;-70
2024/04/04 02:47:04;;;;;;;;;;;11.20;99.90;;;10.72;100.00;97389.97;5028003;28;2326;-70
2024/04/04 02:49:30;;;;;;;;;;;11.20;99.90;;;10.69;100.00;97382.31;5027884;28;1597;-70
2024/04/04 02:51:57;;;;;;;;;;;11.20;99.90;;;10.73;100.00;97380.41;5027141;28;1987;-70
2024/04/04 02:54:23;;;;;;;;;;;11.20;99.90;;;10.72;100.00;97376.13;5013808;28;1634;-70
2024/04/04 02:56:49;;;;;;;;;;;11.20;99.90;;;10.80;100.00;97369.66;5017925;28;3104;-70
2024/04/04 02:59:15;;;;;;;;;;;11.20;99.90;;;10.76;100.00;97375.91;5027265;28;1896;-70
2024/04/04 03:01:41;;;;;;;;;;;11.30;99.90;;;10.74;100.00;97372.56;5026361;28;1482;-70
2024/04/04 03:04:08;;;;;;;;;;;11.20;99.90;;;10.68;100.00;97375.44;5027878;28;1724;-70
2024/04/04 03:06:35;;;;;;;;;;;11.20;99.90;;;10.82;100.00;97375.63;5028360;28;1889;-70
2024/04/04 03:09:03;;;;;;;;;;;11.30;99.90;;;10.73;100.00;97386.44;5043596;28;1701;-70
2024/04/04 03:11:30;;;;;;;;;;;11.30;99.90;;;10.78;100.00;97381.03;4993866;28;2127;-70
2024/04/04 03:13:56;;;;;;;;;;;11.20;99.90;;;10.73;100.00;97370.88;5012939;28;1607;-70
2024/04/04 03:16:21;;;;;;;;;;;11.20;99.90;;;10.70;100.00;97368.44;5026629;28;1638;-70
2024/04/04 03:18:47;;;;;;;;;;;11.20;99.90;;;10.77;100.00;97356.00;5024168;28;1625;-70
2024/04/04 03:21:13;;;;;;;;;;;11.30;99.90;;;10.68;100.00;97359.88;5027059;28;1742;-70
2024/04/04 03:23:39;;;;;;;;;;;11.30;99.90;;;10.67;100.00;97355.56;5027506;28;2416;-70
2024/04/04 03:26:05;;;;;;;;;;;11.30;99.90;;;10.65;100.00;97340.09;5046687;28;2713;-70
2024/04/04 03:28:31;;;;;;;;;;;11.30;99.90;;;10.59;100.00;97345.56;5026706;28;1682;-70
2024/04/04 03:30:57;;;;;;;;;;;11.20;99.90;;;10.55;100.00;97354.38;5027062;28;1937;-70
2024/04/04 03:33:23;;;;;;;;;;;11.20;99.90;;;10.67;100.00;97356.44;5029470;28;1722;-70
2024/04/04 03:35:49;;;;;;;;;;;11.10;99.90;;;10.61;100.00;97350.69;5026380;28;1892;-70
2024/04/04 03:38:14;;;;;;;;;;;11.10;99.90;;;10.57;100.00;97362.94;5010630;28;2856;-70
2024/04/04 03:40:40;;;;;;;;;;;11.10;99.90;;;10.66;100.00;97341.75;5025846;28;1484;-70
2024/04/04 03:43:06;;;;;;;;;;;11.10;99.90;;;10.66;100.00;97344.34;5029549;28;1616;-70
2024/04/04 03:45:41;;;;;;;;;;;11.10;99.90;;;10.65;100.00;97349.59;5025976;28;1617;-70
2024/04/04 03:48:07;;;;;;;;;;;11.10;99.90;;;10.61;100.00;97335.13;5025492;28;1634;-70
2024/04/04 03:50:33;;;;;;;;;;;11.10;99.90;;;10.59;100.00;97348.16;5026949;28;1903;-70
2024/04/04 03:52:59;;;;;;;;;;;11.10;99.90;;;10.62;100.00;97342.81;5010140;28;2009;-70
2024/04/04 03:55:25;;;;;;;;;;;11.20;99.90;;;10.67;100.00;97327.88;5018065;28;2371;-70
2024/04/04 03:57:51;;;;;;;;;;;11.20;99.90;;;10.58;100.00;97323.13;5027553;28;1762;-70
2024/04/04 04:00:17;;;;;;;;;;;11.20;99.90;;;10.58;100.00;97322.25;5026820;28;1432;-70
2024/04/04 04:02:43;;;;;;;;;;;11.20;99.90;;;10.67;100.00;97322.69;5011800;28;1429;-70
2024/04/04 04:05:09;;;;;;;;;;;11.30;99.90;;;10.65;100.00;97341.81;5027809;28;1438;-70
2024/04/04 04:07:35;;;;;;;;;;;11.20;99.90;;;10.54;100.00;97318.16;5028462;28;1629;-70
2024/04/04 04:10:01;;;;;;;;;;;11.20;99.90;;;10.48;100.00;97331.41;5025834;28;2066;-70
2024/04/04 04:12:27;;;;;;;;;;;11.10;99.90;;;10.48;100.00;97340.00;5029894;28;1914;-70
2024/04/04 04:14:53;;;;;;;;;;;11.10;99.90;;;10.47;100.00;97338.34;5030012;28;1340;-70
2024/04/04 04:17:19;;;;;;;;;;;11.10;99.90;;;10.46;100.00;97339.25;5045098;28;1754;-70
2024/04/04 04:19:44;;;;;;;;;;;11.00;99.90;;;10.40;100.00;97323.94;5029692;28;1654;-70
2024/04/04 04:22:10;;;;;;;;;;;11.10;99.90;;;10.40;100.00;97337.78;5032118;28;1503;-70
2024/04/04 04:24:36;;;;;;;;;;;11.10;99.90;;;10.42;100.00;97317.81;5022861;28;3330;-70
2024/04/04 04:27:02;;;;;;;;;;;11.10;99.90;;;10.52;100.00;97331.19;5030004;28;1624;-70
2024/04/04 04:29:28;;;;;;;;;;;11.10;99.90;;;10.46;100.00;97332.28;5029768;28;1616;-70
2024/04/04 04:31:56;;;;;;;;;;;11.10;99.90;;;10.47;100.00;97353.91;5032224;28;1910;-70
2024/04/04 04:34:22;;;;;;;;;;;11.10;99.90;;;10.46;100.00;97329.69;5033597;28;1505;-70
2024/04/04 04:37:14;;;;;;;;;;;11.10;99.90;;;10.55;100.00;97340.56;5014650;28;2057;-70
2024/04/04 04:39:40;;;;;;;;;;;11.10;99.90;;;10.54;100.00;97337.16;5033593;28;1851;-70
2024/04/04 04:42:06;;;;;;;;;;;11.10;99.90;;;10.58;100.00;97351.66;5021644;28;1846;-70
2024/04/04 04:44:32;;;;;;;;;;;11.10;99.90;;;10.71;100.00;97340.72;5020111;28;1587;-70
2024/04/04 04:46:58;;;;;;;;;;;11.10;99.90;;;10.69;100.00;97332.97;5028813;28;1617;-70
2024/04/04 04:49:24;;;;;;;;;;;11.10;99.90;;;10.67;100.00;97343.47;5028479;28;1606;-70
2024/04/04 04:51:50;;;;;;;;;;;11.20;99.90;;;10.76;100.00;97331.78;5014222;28;2006;-70
2024/04/04 04:54:16;;;;;;;;;;;11.20;99.90;;;10.61;100.00;97311.75;5030170;28;1873;-70
2024/04/04 04:56:42;;;;;;;;;;;11.30;99.90;;;10.56;100.00;97324.94;5013502;28;1613;-70
2024/04/04 04:59:08;;;;;;;;;;;11.20;99.90;;;10.61;100.00;97317.78;5030755;28;1761;-70
2024/04/04 05:01:35;;;;;;;;;;;11.20;99.90;;;10.71;100.00;97325.13;5047023;28;1650;-70
2024/04/04 05:04:01;;;;;;;;;;;11.20;99.90;;;10.63;100.00;97331.53;5020689;28;1615;-70
2024/04/04 05:06:28;;;;;;;;;;;11.30;99.90;;;10.71;100.00;97301.78;5027507;28;3721;-69
2024/04/04 05:08:55;;;;;;;;;;;11.30;99.90;;;10.65;100.00;97292.50;5031255;28;1801;-70
2024/04/04 05:11:20;;;;;;;;;;;11.20;99.90;;;10.71;100.00;97301.78;5012753;28;1976;-70
2024/04/04 05:13:46;;;;;;;;;;;11.30;99.90;;;10.67;100.00;97285.47;5028041;28;1321;-70
2024/04/04 05:16:12;;;;;;;;;;;11.20;99.90;;;10.62;100.00;97277.09;5029836;28;1829;-70
2024/04/04 05:18:38;;;;;;;;;;;11.30;99.90;;;10.65;100.00;97269.13;5028624;28;1900;-70
2024/04/04 05:21:04;;;;;;;;;;;11.30;99.90;;;10.67;100.00;97283.75;5030504;28;1877;-70
2024/04/04 05:23:31;;;;;;;;;;;11.30;99.90;;;10.65;100.00;97282.13;5027852;28;2398;-70
2024/04/04 05:25:57;;;;;;;;;;;11.30;99.90;;;10.74;100.00;97268.72;5013179;28;2443;-70
2024/04/04 05:28:26;;;;;;;;;;;11.40;99.90;;;10.76;100.00;97253.91;5030456;28;1619;-69
2024/04/04 05:30:53;;;;;;;;;;;11.30;99.90;;;10.76;100.00;97251.28;5045396;28;1972;-70
2024/04/04 05:33:19;;;;;;;;;;;11.40;99.90;;;10.76;100.00;97272.06;5031141;28;1599;-70
2024/04/04 05:35:45;;;;;;;;;;;11.40;99.90;;;10.73;100.00;97259.25;5030423;28;1672;-70
2024/04/04 05:38:11;;;;;;;;;;;11.30;99.90;;;10.68;100.00;97266.41;5031392;28;1761;-69
2024/04/04 05:40:37;;;;;;;;;;;11.30;99.90;;;10.68;100.00;97280.22;5029591;28;2120;-70
2024/04/04 05:43:03;;;;;;;;;;;11.30;99.90;;;10.67;100.00;97275.97;5014156;28;1854;-70
2024/04/04 05:45:29;;;;;;;;;;;11.20;99.90;;;10.56;100.00;97274.78;5011699;28;1711;-70
2024/04/04 05:47:55;;;;;;;;;;;11.10;99.90;;;10.50;100.00;97277.69;5028238;28;1591;-70
2024/04/04 05:50:21;;;;;;;;;;;11.10;99.90;;;10.48;100.00;97256.16;5032248;28;1619;-70
2024/04/04 05:52:47;;;;;;;;;;;11.10;99.90;;;10.60;100.00;97282.34;5011672;28;1910;-70
2024/04/04 05:55:13;;;;;;;;;;;11.10;99.90;;;10.53;100.00;97269.75;5011473;28;4041;-70
2024/04/04 05:57:39;;;;;;;;;;;11.20;99.90;;;10.55;100.00;97283.47;5027465;28;1721;-70
2024/04/04 06:00:06;;;;;;;;;;;11.10;99.90;;;10.58;100.00;97291.13;5011179;28;2569;-69
2024/04/04 06:02:32;;;;;;;;;;;11.10;99.90;;;10.64;100.00;97280.44;5046071;28;1515;-70
2024/04/04 06:04:57;;;;;;;;;;;11.20;99.90;;;10.63;100.00;97292.59;5045466;28;1654;-70
2024/04/04 06:07:23;;;;;;;;;;;11.20;99.90;;;10.59;100.00;97261.66;5013240;28;1376;-70
2024/04/04 06:09:49;;;;;;;;;;;11.10;99.90;;;10.67;100.00;97285.47;5036337;28;1759;-70
2024/04/04 06:12:16;;;;;;;;;;;11.20;99.90;;;10.72;100.00;97269.69;5047508;28;1975;-69
2024/04/04 06:14:41;;;;;;;;;;;11.20;99.90;;;10.64;100.00;97254.50;5013639;28;1438;-69
2024/04/04 06:17:07;;;;;;;;;;;11.30;99.90;;;10.65;100.00;97256.16;5029553;28;1610;-70
2024/04/04 06:19:33;;;;;;;;;;;11.20;99.90;;;10.67;100.00;97252.59;5021440;28;1819;-69
2024/04/04 06:21:59;;;;;;;;;;;11.30;99.90;;;10.73;100.00;97268.78;5029413;28;1758;-70
2024/04/04 06:24:25;;;;;;;;;;;11.30;99.90;;;10.68;100.00;97254.28;5025888;28;1712;-70
2024/04/04 06:26:51;;;;;;;;;;;11.30;99.90;;;10.74;100.00;97249.69;5028143;28;2183;-70
2024/04/04 06:29:18;;;;;;;;;;;11.30;99.90;;;10.70;100.00;97242.97;5027146;28;1582;-69
2024/04/04 06:31:45;;;;;;;;;;;11.30;99.90;;;10.75;100.00;97259.19;5027882;28;1899;-70
2024/04/04 06:34:12;;;;;;;;;;;11.30;99.90;;;10.66;100.00;97273.44;5028766;28;1662;-69
2024/04/04 06:36:38;;;;;;;;;;;11.20;99.90;;;10.66;100.00;97237.94;5026760;28;1558;-69
2024/04/04 06:39:04;;;;;;;;;;;11.30;99.90;;;10.66;100.00;97291.59;5029288;28;1586;-69
2024/04/04 06:41:30;;;;;;;;;;;11.20;99.90;;;10.76;100.00;97279.03;5012576;28;3246;-70
2024/04/04 06:43:56;;;;;;;;;;;11.30;99.90;;;10.82;100.00;97287.34;5010434;28;1951;-70
2024/04/04 06:46:22;;;;;;;;;;;11.30;99.90;;;10.70;100.00;97300.06;5013121;28;1629;-70
2024/04/04 06:48:48;;;;;;;;;;;11.20;99.90;;;10.83;100.00;97281.25;5029455;28;1381;-69
2024/04/04 06:51:14;;;;;;;;;;;11.30;99.90;;;10.69;100.00;97268.09;5016749;28;1903;-69
2024/04/04 06:53:40;;;;;;;;;;;11.20;99.90;;;10.59;100.00;97270.28;5026594;28;1606;-70
2024/04/04 06:56:06;;;;;;;;;;;11.30;99.90;;;10.68;100.00;97293.22;5011839;28;2081;-70
2024/04/04 06:58:32;;;;;;;;;;;11.20;99.90;;;10.57;100.00;97281.66;5011663;28;1555;-70
2024/04/04 07:00:58;;;;;;;;;;;11.20;99.90;;;10.62;100.00;97306.47;5026596;28;1632;-70
2024/04/04 07:03:24;;;;;;;;;;;11.10;99.90;;;10.48;100.00;97303.69;5028106;28;1629;-70
2024/04/04 07:05:50;;;;;;;;;;;11.10;99.90;;;10.44;100.00;97296.94;5027088;28;1766;-70
2024/04/04 07:08:17;;;;;;;;;;;11.10;99.90;;;10.51;100.00;97305.28;5020415;28;1723;-70
2024/04/04 07:10:45;;;;;;;;;;;11.10;99.90;;;10.57;100.00;97290.28;5025541;28;1982;-70
2024/04/04 07:13:13;;;;;;;;;;;11.10;99.90;;;10.53;100.00;97311.25;5024687;28;1392;-70
2024/04/04 07:15:39;;;;;;;;;;;11.10;99.90;;;10.55;100.00;97304.25;5021185;28;1568;-70
2024/04/04 07:18:09;;;;;;;;;;;11.10;99.90;;;10.59;100.00;97327.38;5020564;28;1611;-70
2024/04/04 07:20:39;;;;;;;;;;;11.10;99.90;;;10.59;100.00;97314.41;5021598;28;1723;-70
2024/04/04 07:23:05;;;;;;;;;;;11.10;99.90;;;10.68;100.00;97313.13;5023593;28;2928;-70
2024/04/04 07:25:32;;;;;;;;;;;11.20;99.90;;;10.72;100.00;97319.88;5009848;28;2406;-70
2024/04/04 07:27:58;;;;;;;;;;;11.20;99.90;;;10.70;100.00;97328.63;5004769;28;1411;-70
2024/04/04 07:30:24;;;;;;;;;;;11.20;99.90;;;10.63;100.00;97331.53;5004931;28;1401;-70
2024/04/04 07:32:50;;;;;;;;;;;11.10;99.90;;;10.62;100.00;97329.00;5021833;28;1976;-70
2024/04/04 07:35:16;;;;;;;;;;;11.10;99.90;;;10.66;100.00;97333.97;5021355;28;2035;-70
2024/04/04 07:37:42;;;;;;;;;;;11.10;99.90;;;10.70;100.00;97287.09;5022615;28;1861;-70
2024/04/04 07:40:08;;;;;;;;;;;11.20;99.90;;;10.61;100.00;97322.13;5025605;28;1404;-70
2024/04/04 07:42:34;;;;;;;;;;;11.20;99.90;;;10.57;100.00;97318.81;5005184;28;1587;-70
2024/04/04 07:45:00;;;;;;;;;;;11.20;99.90;;;10.53;100.00;97314.69;5005910;28;1610;-70
2024/04/04 07:47:26;;;;;;;;;;;11.10;99.90;;;10.49;100.00;97325.28;5035697;28;1521;-70
2024/04/04 07:49:52;;;;;;;;;;;11.10;99.90;;;10.49;100.00;97331.34;5038836;28;1998;-70
2024/04/04 07:52:20;;;;;;;;;;;11.10;99.90;;;10.52;100.00;97345.91;5025293;28;1988;-70
2024/04/04 07:54:46;;;;;;;;;;;11.10;99.90;;;10.55;100.00;97335.38;5025707;28;2416;-70
2024/04/04 07:57:12;;;;;;;;;;;11.10;99.90;;;10.60;100.00;97341.19;5026817;28;1845;-70
2024/04/04 07:59:43;;;;;;;;;;;11.10;99.90;;;10.61;100.00;97327.31;5008171;28;2410;-70
2024/04/04 08:02:09;;;;;;;;;;;11.10;99.90;;;10.61;100.00;97332.53;5019748;28;1504;-70
2024/04/04 08:04:35;;;;;;;;;;;11.20;99.90;;;10.58;100.00;97341.28;5025067;28;1671;-70
2024/04/04 08:07:01;;;;;;;;;;;11.10;99.90;;;10.65;100.00;97360.84;5022902;28;1562;-70
2024/04/04 08:09:27;;;;;;;;;;;11.10;99.90;;;10.58;100.00;97338.69;5026001;28;3105;-69
2024/04/04 08:11:53;;;;;;;;;;;11.20;99.90;;;10.56;100.00;97361.28;5008801;28;1997;-70
2024/04/04 08:14:18;;;;;;;;;;;11.10;99.90;;;10.55;100.00;97325.00;4993992;28;1498;-69
2024/04/04 08:16:44;;;;;;;;;;;11.10;99.90;;;10.57;100.00;97351.72;5025551;28;1257;-69
2024/04/04 08:19:10;;;;;;;;;;;11.10;99.90;;;10.58;100.00;97361.19;5023380;28;1409;-70
2024/04/04 08:21:37;;;;;;;;;;;11.20;99.90;;;10.54;100.00;97313.78;5026547;28;2000;-69
2024/04/04 08:24:04;;;;;;;;;;;11.10;99.90;;;10.56;100.00;97353.50;5023059;28;1651;-70
2024/04/04 08:26:30;;;;;;;;;;;11.10;99.90;;;10.60;100.00;97393.94;5022892;28;1575;-70
2024/04/04 08:28:56;;;;;;;;;;;11.10;99.90;;;10.49;100.00;97374.59;5041386;28;1726;-70
2024/04/04 08:31:22;;;;;;;;;;;11.10;99.90;;;10.52;100.00;97372.72;5009292;28;1906;-69
2024/04/04 08:33:48;;;;;;;;;;;11.10;99.90;;;10.58;100.00;97356.00;5025374;28;1559;-69
2024/04/04 08:36:14;;;;;;;;;;;11.10;99.90;;;10.61;100.00;97400.84;5023532;28;2016;-69
2024/04/04 08:38:40;;;;;;;;;;;11.10;99.90;;;10.62;100.00;97354.94;5008022;28;1724;-69
2024/04/04 08:41:08;;;;;;;;;;;11.10;99.90;;;10.61;100.00;97369.69;5025637;28;1673;-69
2024/04/04 08:43:35;;;;;;;;;;;11.10;99.90;;;10.68;100.00;97372.84;5006948;28;1642;-70
2024/04/04 08:46:06;;;;;;;;;;;11.10;99.90;;;10.71;100.00;97392.63;5024654;28;1387;-69
2024/04/04 08:48:32;;;;;;;;;;;11.20;99.90;;;10.61;100.00;97418.16;5024365;28;1530;-69
2024/04/04 08:50:58;;;;;;;;;;;11.20;99.90;;;10.58;100.00;97380.22;5023422;28;3360;-69
2024/04/04 08:53:25;;;;;;;;;;;11.30;99.90;;;10.64;100.00;97394.66;5022399;28;2471;-70
2024/04/04 08:55:54;;;;;;;;;;;11.10;99.90;;;10.64;100.00;97407.63;5008385;28;2432;-69
2024/04/04 08:58:22;;;;;;;;;;;11.10;99.90;;;10.65;100.00;97381.63;5039131;28;1713;-69
2024/04/04 09:00:49;;;;;;;;;;;11.20;99.90;;;10.59;100.00;97413.03;5024291;28;1649;-70
2024/04/04 09:03:15;;;;;;;;;;;11.20;99.90;;;10.61;100.00;97393.06;5025883;28;1324;-69
2024/04/04 09:05:42;;;;;;;;;;;11.20;99.90;;;10.73;100.00;97383.84;5022606;28;2278;-69
2024/04/04 09:08:08;;;;;;;;;;;11.20;99.90;;;10.66;100.00;97390.25;5012445;28;1850;-70
2024/04/04 09:10:34;;;;;;;;;;;11.20;99.90;;;10.70;100.00;97427.25;5023733;28;1569;-70
2024/04/04 09:13:01;;;;;;;;;;;11.10;99.90;;;10.56;100.00;97408.00;4990377;28;1906;-70
2024/04/04 09:15:30;;;;;;;;;;;11.10;99.90;;;10.54;100.00;97438.34;5008266;28;1834;-70
2024/04/04 09:18:06;;;;;;;;;;;11.10;99.90;;;10.49;100.00;97410.91;5024472;28;1597;-69
2024/04/04 09:20:35;;;;;;;;;;;11.10;99.90;;;10.44;100.00;97434.47;5009158;28;2369;-69
2024/04/04 09:23:01;;;;;;;;;;;11.00;99.90;;;10.53;100.00;97441.84;5022638;28;1542;-69
2024/04/04 09:25:28;;;;;;;;;;;11.00;99.90;;;10.56;100.00;97426.16;5024031;28;1436;-69
2024/04/04 09:27:55;;;;;;;;;;;11.00;99.90;;;10.58;100.00;97424.34;5025844;28;1459;-69
2024/04/04 09:30:23;;;;;;;;;;;11.00;99.90;;;10.59;100.00;97448.53;5024190;28;1631;-70
2024/04/04 09:32:49;;;;;;;;;;;11.00;99.90;;;10.56;100.00;97433.09;5024062;28;1997;-69
2024/04/04 09:35:15;;;;;;;;;;;11.00;99.90;;;10.65;100.00;97409.31;5007791;28;3146;-69
2024/04/04 09:37:44;;;;;;;;;;;11.20;99.90;;;10.57;100.00;97396.69;5008130;28;1548;-70
2024/04/04 09:40:10;;;;;;;;;;;11.10;99.90;;;10.55;100.00;97434.84;5003643;28;1432;-69
2024/04/04 09:42:41;;;;;;;;;;;11.10;99.90;;;10.70;100.00;97415.16;4990773;28;1839;-69
2024/04/04 09:45:09;;;;;;;;;;;11.20;99.90;;;10.75;100.00;97423.56;5021485;28;1700;-69
2024/04/04 09:47:47;;;;;;;;;;;11.30;99.90;;;10.76;100.00;97422.63;5019694;28;1650;-69
2024/04/04 09:50:18;;;;;;;;;;;11.20;99.90;;;10.77;100.00;97431.28;5020230;28;1989;-70
2024/04/04 09:52:44;;;;;;;;;;;11.20;99.90;;;10.73;100.00;97403.78;5022626;28;2018;-70
2024/04/04 09:55:13;;;;;;;;;;;11.20;99.90;;;10.81;100.00;97415.50;5023240;28;2374;-70
2024/04/04 09:57:39;;;;;;;;;;;11.20;99.90;;;10.82;100.00;97408.56;5006412;28;1770;-69
2024/04/04 10:00:18;;;;;;;;;;;11.30;99.90;;;10.76;100.00;97416.59;5021195;28;1635;-69
2024/04/04 10:02:44;;;;;;;;;;;11.20;99.90;;;10.76;100.00;97411.41;5024070;28;1854;-69
2024/04/04 10:05:18;;;;;;;;;;;11.30;99.90;;;10.78;100.00;97432.97;5023184;28;1613;-69
2024/04/04 10:07:48;;;;;;;;;;;11.30;99.90;;;10.93;100.00;97415.84;5022687;28;2080;-69
2024/04/04 10:10:19;;;;;;;;;;;11.40;99.90;;;10.86;100.00;97382.38;5022903;28;1572;-69
2024/04/04 10:12:54;;;;;;;;;;;11.40;99.90;;;11.00;100.00;97412.06;5022174;28;1972;-69
2024/04/04 10:15:21;;;;;;;;;;;11.40;99.90;;;11.06;100.00;97412.59;5024229;28;1840;-70
2024/04/04 10:17:52;;;;;;;;;;;11.40;99.90;;;11.12;100.00;97413.22;5022757;28;1451;-69
2024/04/04 10:20:20;;;;;;;;;;;11.50;99.90;;;11.10;100.00;97395.09;5006586;28;1505;-68
2024/04/04 10:23:00;;;;;;;;;;;11.50;99.90;;;10.91;100.00;97396.91;5007453;28;3247;-69
2024/04/04 10:25:26;;;;;;;;;;;11.50;99.90;;;10.93;100.00;97408.91;5018815;28;1720;-69
2024/04/04 10:28:05;;;;;;;;;;;11.30;99.90;;;10.84;100.00;97381.59;5025553;28;1413;-69
2024/04/04 10:30:38;;;;;;;;;;;11.50;99.90;;;10.80;100.00;97358.44;5021032;28;1856;-69
2024/04/04 10:33:07;;;;;;;;;;;11.40;99.90;;;10.82;100.00;97392.97;5022459;28;1906;-71
2024/04/04 10:35:34;;;;;;;;;;;11.40;99.90;;;10.95;100.00;97377.63;5024916;28;2055;-69
2024/04/04 10:38:13;;;;;;;;;;;11.40;99.90;;;10.84;100.00;97397.19;5022346;28;1847;-70
2024/04/04 10:40:40;;;;;;;;;;;11.40;99.90;;;10.83;100.00;97408.50;5023051;28;1666;-69
2024/04/04 10:43:10;;;;;;;;;;;11.30;99.90;;;10.84;100.00;97409.31;5005698;28;2870;-69
2024/04/04 10:45:36;;;;;;;;;;;11.20;99.90;;;10.75;100.00;97420.97;5021106;28;1409;-69
2024/04/04 10:48:03;;;;;;;;;;;11.20;99.90;;;10.72;100.00;97371.78;5020270;28;1385;-69
2024/04/04 10:50:30;;;;;;;;;;;11.30;99.90;;;10.60;100.00;97406.09;5005707;28;1994;-70
2024/04/04 10:52:57;;;;;;;;;;;11.20;99.90;;;10.72;100.00;97425.44;5021747;28;1906;-69
2024/04/04 10:55:24;;;;;;;;;;;11.20;99.90;;;10.69;100.00;97431.63;5001896;28;1577;-70
2024/04/04 10:57:52;;;;;;;;;;;11.10;99.90;;;10.71;100.00;97410.78;5007876;28;1656;-69
2024/04/04 11:00:20;;;;;;;;;;;11.20;99.90;;;10.76;100.00;97378.50;5006410;28;1648;-69
2024/04/04 11:02:46;;;;;;;;;;;11.20;99.90;;;10.79;100.00;97396.56;5039013;28;1626;-70
2024/04/04 11:05:13;;;;;;;;;;;11.30;99.90;;;10.78;100.00;97388.81;5015459;28;3085;-70
2024/04/04 11:07:42;;;;;;;;;;;11.30;99.90;;;10.74;100.00;97408.91;5007950;28;1428;-69
2024/04/04 11:10:10;;;;;;;;;;;11.20;99.90;;;10.73;100.00;97404.63;5023499;28;1536;-69
2024/04/04 11:12:39;;;;;;;;;;;11.30;99.90;;;10.64;100.00;97389.47;5005370;28;1987;-69
2024/04/04 11:15:06;;;;;;;;;;;11.20;99.90;;;10.60;100.00;97427.69;5006065;28;1693;-69